createdAt,value
2022-10-07T00:01:20.152Z,6.30
2022-10-07T00:03:52.181Z,7.10
2022-10-07T00:06:23.735Z,6.32
2022-10-07T00:08:56.534Z,6.15
2022-10-07T00:11:29.141Z,6.47
2022-10-07T00:14:03.989Z,6.12
2022-10-07T00:16:39.483Z,5.93
2022-10-07T00:19:14.364Z,6.15
2022-10-07T00:21:44.914Z,6.05
2022-10-07T00:24:16.957Z,7.03
2022-10-07T00:26:49.496Z,6.80
2022-10-07T00:29:21.342Z,5.97
2022-10-07T00:31:57.238Z,5.85
2022-10-07T00:34:29.836Z,5.62
2022-10-07T00:37:00.359Z,6.10
2022-10-07T00:42:04.294Z,5.80
2022-10-07T00:44:44.924Z,5.90
2022-10-07T00:47:37.948Z,5.55
2022-10-07T00:50:19.563Z,5.57
2022-10-07T00:52:53.865Z,5.82
2022-10-07T00:55:26.980Z,6.07
2022-10-07T01:00:28.283Z,6.30
2022-10-07T01:02:57.717Z,6.32
2022-10-07T01:05:32.437Z,6.10
2022-10-07T01:08:06.888Z,6.65
2022-10-07T01:11:14.340Z,5.35
2022-10-07T01:13:55.910Z,4.87
2022-10-07T01:16:40.533Z,5.85
2022-10-07T01:19:32.715Z,5.40
2022-10-07T01:22:13.221Z,5.00
2022-10-07T01:24:49.344Z,5.15
2022-10-07T01:27:25.398Z,5.60
2022-10-07T01:30:01.971Z,5.68
2022-10-07T01:32:44.885Z,5.47
2022-10-07T01:35:21.994Z,5.22
2022-10-07T01:38:01.196Z,5.18
2022-10-07T01:40:35.256Z,5.90
2022-10-07T01:43:07.357Z,5.47
2022-10-07T01:45:42.119Z,5.62
2022-10-07T01:48:15.955Z,5.28
2022-10-07T01:50:50.223Z,5.53
2022-10-07T01:53:25.373Z,5.57
2022-10-07T01:56:13.826Z,5.80
2022-10-07T01:59:13.588Z,5.18
2022-10-07T02:01:42.736Z,4.90
2022-10-07T02:04:26.096Z,4.82
2022-10-07T02:07:34.251Z,5.30
2022-10-07T02:10:09.166Z,5.68
2022-10-07T02:12:44.398Z,5.65
2022-10-07T02:15:35.809Z,5.32
2022-10-07T02:18:09.173Z,6.07
2022-10-07T02:20:43.161Z,5.80
2022-10-07T02:23:13.671Z,5.37
2022-10-07T02:25:50.563Z,5.47
2022-10-07T02:28:23.553Z,5.30
2022-10-07T02:30:57.083Z,5.65
2022-10-07T02:33:30.684Z,6.10
2022-10-07T02:36:09.792Z,5.18
2022-10-07T02:38:40.137Z,5.47
2022-10-07T02:41:32.030Z,5.90
2022-10-07T02:44:17.524Z,5.20
2022-10-07T02:47:18.277Z,5.80
2022-10-07T02:49:53.733Z,5.07
2022-10-07T02:52:28.813Z,5.53
2022-10-07T02:55:17.659Z,5.53
2022-10-07T02:57:50.015Z,5.72
2022-10-07T03:00:20.111Z,5.78
2022-10-07T03:02:54.743Z,5.53
2022-10-07T03:05:25.946Z,5.78
2022-10-07T03:07:59.841Z,5.10
2022-10-07T03:10:30.140Z,5.57
2022-10-07T03:12:59.735Z,5.37
2022-10-07T03:15:28.329Z,5.90
2022-10-07T03:17:57.281Z,5.32
2022-10-07T03:20:28.368Z,5.45
2022-10-07T03:23:00.438Z,5.20
2022-10-07T03:25:31.691Z,7.97
2022-10-07T03:28:00.964Z,5.80
2022-10-07T03:30:30.237Z,5.85
2022-10-07T03:32:58.800Z,6.07
2022-10-07T03:35:30.351Z,6.20
2022-10-07T03:37:59.656Z,5.28
2022-10-07T03:40:28.301Z,5.80
2022-10-07T03:42:56.543Z,6.70
2022-10-07T03:45:25.460Z,6.55
2022-10-07T03:47:54.091Z,5.07
2022-10-07T03:50:26.619Z,5.50
2022-10-07T03:52:56.390Z,5.55
2022-10-07T03:55:25.939Z,5.43
2022-10-07T03:57:58.535Z,5.53
2022-10-07T04:00:29.476Z,5.32
2022-10-07T04:03:02.370Z,6.43
2022-10-07T04:05:32.074Z,6.10
2022-10-07T04:08:05.029Z,7.25
2022-10-07T04:10:34.450Z,7.00
2022-10-07T04:13:05.032Z,7.10
2022-10-07T04:15:37.888Z,7.82
2022-10-07T04:18:07.340Z,7.25
2022-10-07T04:20:38.054Z,6.05
2022-10-07T04:23:09.337Z,5.95
2022-10-07T04:25:38.619Z,6.32
2022-10-07T04:28:16.217Z,8.77
2022-10-07T04:30:49.156Z,5.75
2022-10-07T04:33:19.537Z,5.03
2022-10-07T04:35:49.040Z,6.03
2022-10-07T04:38:20.043Z,6.25
2022-10-07T04:40:50.168Z,6.85
2022-10-07T04:43:23.067Z,7.20
2022-10-07T04:45:54.524Z,7.18
2022-10-07T04:50:53.427Z,6.25
2022-10-07T04:53:23.645Z,5.57
2022-10-07T04:55:52.075Z,6.05
2022-10-07T04:58:22.491Z,7.57
2022-10-07T05:00:52.857Z,7.28
2022-10-07T05:03:25.131Z,6.95
2022-10-07T05:05:56.030Z,6.57
2022-10-07T05:08:25.820Z,7.35
2022-10-07T05:10:57.026Z,6.15
2022-10-07T05:13:28.505Z,7.00
2022-10-07T05:16:01.485Z,7.82
2022-10-07T05:18:31.338Z,6.55
2022-10-07T05:20:59.578Z,6.07
2022-10-07T05:23:31.240Z,6.07
2022-10-07T05:26:04.562Z,6.25
2022-10-07T05:28:34.950Z,6.03
2022-10-07T05:31:07.444Z,6.37
2022-10-07T05:33:37.978Z,6.72
2022-10-07T05:36:09.144Z,7.10
2022-10-07T05:38:39.904Z,8.45
2022-10-07T05:41:10.671Z,9.43
2022-10-07T05:43:42.262Z,8.70
2022-10-07T05:46:19.003Z,7.60
2022-10-07T05:48:49.018Z,6.97
2022-10-07T05:51:19.770Z,6.75
2022-10-07T05:53:47.975Z,6.62
2022-10-07T05:56:18.367Z,5.90
2022-10-07T05:58:46.706Z,6.57
2022-10-07T06:01:16.691Z,6.28
2022-10-07T06:08:46.936Z,8.23
2022-10-07T06:11:36.514Z,9.60
2022-10-07T06:14:06.997Z,9.33
2022-10-07T06:16:35.026Z,9.50
2022-10-07T06:19:03.009Z,10.52
2022-10-07T06:21:31.567Z,10.80
2022-10-07T06:26:29.662Z,8.98
2022-10-07T06:28:59.054Z,8.63
2022-10-07T06:31:28.837Z,9.82
2022-10-07T06:33:57.360Z,9.75
2022-10-07T06:36:25.460Z,9.93
2022-10-07T06:38:55.207Z,9.15
2022-10-07T06:41:24.224Z,9.10
2022-10-07T06:43:57.999Z,9.63
2022-10-07T06:46:27.272Z,9.65
2022-10-07T06:48:56.000Z,10.10
2022-10-07T06:51:24.350Z,9.40
2022-10-07T06:53:57.871Z,9.90
2022-10-07T06:56:26.864Z,9.98
2022-10-07T06:58:55.391Z,10.48
2022-10-07T07:01:23.779Z,10.18
2022-10-07T07:03:54.076Z,9.75
2022-10-07T07:06:23.251Z,9.43
2022-10-07T07:08:51.226Z,10.68
2022-10-07T07:11:37.924Z,9.43
2022-10-07T07:14:11.705Z,9.25
2022-10-07T07:16:40.664Z,9.45
2022-10-07T07:19:11.789Z,8.75
2022-10-07T07:21:41.167Z,8.90
2022-10-07T07:24:09.830Z,9.55
2022-10-07T07:26:40.485Z,10.15
2022-10-07T07:29:09.149Z,9.10
2022-10-07T07:31:37.944Z,10.02
2022-10-07T07:34:11.480Z,11.45
2022-10-07T07:36:45.578Z,11.85
2022-10-07T07:39:15.865Z,9.27
2022-10-07T07:41:48.688Z,9.02
2022-10-07T07:44:18.639Z,9.02
2022-10-07T07:46:51.280Z,9.43
2022-10-07T07:49:21.092Z,8.75
2022-10-07T07:51:50.302Z,8.93
2022-10-07T07:54:19.387Z,8.75
2022-10-07T07:56:47.399Z,8.35
2022-10-07T07:59:16.725Z,8.38
2022-10-07T08:01:45.575Z,9.48
2022-10-07T08:04:15.306Z,8.43
2022-10-07T08:06:43.610Z,7.93
2022-10-07T08:09:13.059Z,8.63
2022-10-07T08:11:45.470Z,7.32
2022-10-07T08:14:15.902Z,7.97
2022-10-07T08:16:45.235Z,6.57
2022-10-07T08:19:13.328Z,6.22
2022-10-07T08:21:41.716Z,6.03
2022-10-07T08:24:12.844Z,5.32
2022-10-07T08:26:41.193Z,6.43
2022-10-07T08:29:09.572Z,5.68
2022-10-07T08:31:38.792Z,5.65
2022-10-07T08:34:06.700Z,5.95
2022-10-07T08:36:35.089Z,6.12
2022-10-07T08:39:04.752Z,6.07
2022-10-07T08:41:49.988Z,5.47
2022-10-07T08:44:32.053Z,4.90
2022-10-07T08:47:16.439Z,5.57
2022-10-07T08:49:58.554Z,5.37
2022-10-07T08:52:37.994Z,7.05
2022-10-07T08:55:47.543Z,6.65
2022-10-07T08:58:45.603Z,5.30
2022-10-07T09:01:16.086Z,5.50
2022-10-07T09:04:02.484Z,5.53
2022-10-07T09:06:37.985Z,5.75
2022-10-07T09:09:16.274Z,6.43
2022-10-07T09:11:47.910Z,6.00
2022-10-07T09:14:25.211Z,6.32
2022-10-07T09:16:55.136Z,6.82
2022-10-07T09:19:28.848Z,6.65
2022-10-07T09:22:01.824Z,5.78
2022-10-07T09:24:31.754Z,7.50
2022-10-07T09:27:01.708Z,7.62
2022-10-07T09:29:30.865Z,7.55
2022-10-07T09:31:59.963Z,6.30
2022-10-07T09:34:29.981Z,7.40
2022-10-07T09:37:23.899Z,7.90
2022-10-07T09:39:58.076Z,6.78
2022-10-07T09:42:39.230Z,6.18
2022-10-07T09:45:25.366Z,5.80
2022-10-07T09:47:58.444Z,6.75
2022-10-07T09:50:32.712Z,7.00
2022-10-07T09:53:01.766Z,5.62
2022-10-07T09:55:40.319Z,6.22
2022-10-07T09:58:31.539Z,5.57
2022-10-07T10:01:02.268Z,6.50
2022-10-07T10:03:32.148Z,6.35
2022-10-07T10:06:11.766Z,6.40
2022-10-07T10:09:20.279Z,5.70
2022-10-07T10:12:07.612Z,5.82
2022-10-07T10:14:51.656Z,4.60
2022-10-07T10:17:40.176Z,4.60
2022-10-07T10:20:29.053Z,3.90
2022-10-07T10:22:57.513Z,4.12
2022-10-07T10:26:07.551Z,4.10
2022-10-07T10:28:51.864Z,3.92
2022-10-07T10:31:43.222Z,4.07
2022-10-07T10:34:35.043Z,4.03
2022-10-07T10:37:23.215Z,4.87
2022-10-07T10:40:03.007Z,5.35
2022-10-07T10:42:37.723Z,4.85
2022-10-07T10:45:20.399Z,4.53
2022-10-07T10:48:02.622Z,4.30
2022-10-07T10:50:45.943Z,4.00
2022-10-07T10:53:23.739Z,4.32
2022-10-07T10:56:20.736Z,4.85
2022-10-07T10:59:17.539Z,4.30
2022-10-07T11:02:00.922Z,4.22
2022-10-07T11:04:46.115Z,3.85
2022-10-07T11:07:25.562Z,3.37
2022-10-07T11:10:03.179Z,3.20
2022-10-07T11:33:29.285Z,3.65
2022-10-07T11:37:11.371Z,3.20
2022-10-07T11:45:29.349Z,3.92
2022-10-07T13:25:19.696Z,3.92
2022-10-07T13:28:04.236Z,4.00
2022-10-07T13:30:42.366Z,3.67
2022-10-07T13:33:28.431Z,3.87
2022-10-07T13:36:12.101Z,3.97
2022-10-07T13:38:40.370Z,3.53
2022-10-07T13:41:14.687Z,3.85
2022-10-07T13:44:47.529Z,3.22
2022-10-07T13:47:23.300Z,3.08
2022-10-07T13:49:55.033Z,3.83
2022-10-07T13:52:31.013Z,3.83
2022-10-07T13:55:01.827Z,3.33
2022-10-07T13:57:31.478Z,3.22
2022-10-07T14:00:03.571Z,3.20
2022-10-07T14:02:40.710Z,3.87
2022-10-07T14:05:24.106Z,3.42
2022-10-07T14:07:55.308Z,3.28
2022-10-07T14:10:25.746Z,2.90
2022-10-07T14:13:04.359Z,2.85
2022-10-07T14:15:36.355Z,3.08
2022-10-07T14:18:04.332Z,3.67
2022-10-07T14:20:33.926Z,3.75
2022-10-07T14:23:05.571Z,4.10
2022-10-07T14:26:00.411Z,3.67
2022-10-07T14:28:31.221Z,3.03
2022-10-07T14:31:25.366Z,3.10
2022-10-07T14:34:15.585Z,3.33
2022-10-07T14:37:22.574Z,3.10
2022-10-07T14:39:53.255Z,3.12
2022-10-07T14:42:27.508Z,3.35
2022-10-07T14:45:02.648Z,3.40
2022-10-07T14:47:37.955Z,3.87
2022-10-07T14:50:06.959Z,3.20
2022-10-07T14:52:44.277Z,3.60
2022-10-07T14:55:21.455Z,4.00
2022-10-07T14:57:49.890Z,3.40
2022-10-07T15:00:23.845Z,3.58
2022-10-07T15:02:57.795Z,4.10
2022-10-07T15:05:27.134Z,3.80
2022-10-07T15:07:56.442Z,4.22
2022-10-07T15:10:26.347Z,3.83
2022-10-07T15:12:56.111Z,3.80
2022-10-07T15:15:26.103Z,3.83
2022-10-07T15:17:54.773Z,3.85
2022-10-07T15:20:23.272Z,3.50
2022-10-07T15:22:52.318Z,2.97
2022-10-07T15:25:21.110Z,3.55
2022-10-07T15:27:49.536Z,3.37
2022-10-07T15:30:19.383Z,3.97
2022-10-07T15:32:48.316Z,3.70
2022-10-07T15:35:20.141Z,3.65
2022-10-07T15:37:49.230Z,4.07
2022-10-07T15:40:17.804Z,3.47
2022-10-07T15:42:48.123Z,3.70
2022-10-07T15:45:17.217Z,4.07
2022-10-07T15:47:44.982Z,4.55
2022-10-07T15:50:14.759Z,4.15
2022-10-07T15:52:42.851Z,5.03
2022-10-07T15:55:10.761Z,5.75
2022-10-07T15:57:39.856Z,4.78
2022-10-07T16:00:09.775Z,4.57
2022-10-07T16:02:39.491Z,4.97
2022-10-07T16:05:13.155Z,5.57
2022-10-07T16:07:42.243Z,4.18
2022-10-07T16:10:13.177Z,4.68
2022-10-07T16:12:41.715Z,3.97
2022-10-07T16:15:10.968Z,4.47
2022-10-07T16:17:38.951Z,4.43
2022-10-07T16:20:11.168Z,4.70
2022-10-07T16:22:40.354Z,4.40
2022-10-07T16:25:08.474Z,4.85
2022-10-07T16:27:54.533Z,4.90
2022-10-07T16:30:43.145Z,5.22
2022-10-07T16:33:12.056Z,6.00
2022-10-07T16:35:41.894Z,6.28
2022-10-07T16:38:09.330Z,7.87
2022-10-07T16:40:37.246Z,7.22
2022-10-07T16:43:05.649Z,7.47
2022-10-07T16:45:33.884Z,9.10
2022-10-07T16:48:02.946Z,9.68
2022-10-07T16:50:31.549Z,9.52
2022-10-07T16:52:59.492Z,9.73
2022-10-07T16:55:27.490Z,8.40
2022-10-07T16:57:55.235Z,9.63
2022-10-07T17:00:23.464Z,9.35
2022-10-07T17:02:51.566Z,9.27
2022-10-07T17:05:22.385Z,8.43
2022-10-07T17:07:50.802Z,7.75
2022-10-07T17:10:21.287Z,7.85
2022-10-07T17:12:51.046Z,7.68
2022-10-07T17:15:19.239Z,8.55
2022-10-07T17:17:47.604Z,8.00
2022-10-07T17:20:16.826Z,7.12
2022-10-07T17:22:44.722Z,6.75
2022-10-07T17:25:13.116Z,7.30
2022-10-07T17:27:41.274Z,6.85
2022-10-07T17:30:09.909Z,7.65
2022-10-07T17:32:38.756Z,6.78
2022-10-07T17:35:08.627Z,7.62
2022-10-07T17:37:36.858Z,7.18
2022-10-07T17:40:05.869Z,7.82
2022-10-07T17:42:34.377Z,8.13
2022-10-07T17:45:04.765Z,7.45
2022-10-07T17:47:33.673Z,8.27
2022-10-07T17:50:01.602Z,7.18
2022-10-07T17:52:32.317Z,7.32
2022-10-07T17:55:02.187Z,6.50
2022-10-07T17:57:30.214Z,6.70
2022-10-07T17:59:58.692Z,6.60
2022-10-07T18:02:28.767Z,7.37
2022-10-07T18:04:57.589Z,7.78
2022-10-07T18:07:26.589Z,7.68
2022-10-07T18:09:54.635Z,8.52
2022-10-07T18:12:41.757Z,8.27
2022-10-07T18:15:20.858Z,7.00
2022-10-07T18:17:51.575Z,6.47
2022-10-07T18:20:23.135Z,7.15
2022-10-07T18:22:57.366Z,6.65
2022-10-07T18:25:25.414Z,6.80
2022-10-07T18:27:54.651Z,7.60
2022-10-07T18:30:23.499Z,7.62
2022-10-07T18:32:52.364Z,6.55
2022-10-07T18:35:24.504Z,7.20
2022-10-07T18:37:54.519Z,7.90
2022-10-07T18:40:23.608Z,6.97
2022-10-07T18:42:53.360Z,7.30
2022-10-07T18:45:23.658Z,7.28
2022-10-07T18:47:53.007Z,6.95
2022-10-07T18:50:25.669Z,7.30
2022-10-07T18:52:57.284Z,7.50
2022-10-07T18:55:26.453Z,7.15
2022-10-07T18:57:55.135Z,8.20
2022-10-07T19:00:28.259Z,7.43
2022-10-07T19:02:57.029Z,7.85
2022-10-07T19:05:31.633Z,7.00
2022-10-07T19:08:03.299Z,9.38
2022-10-07T19:10:40.025Z,7.75
2022-10-07T19:13:34.343Z,8.02
2022-10-07T19:16:04.547Z,7.65
2022-10-07T19:18:35.748Z,7.32
2022-10-07T19:21:05.151Z,8.70
2022-10-07T19:23:33.000Z,7.07
2022-10-07T19:26:02.230Z,6.90
2022-10-07T19:28:31.408Z,7.15
2022-10-07T19:30:59.346Z,8.23
2022-10-07T19:33:28.205Z,7.47
2022-10-07T19:35:58.073Z,8.05
2022-10-07T19:38:27.220Z,9.20
2022-10-07T19:40:57.898Z,8.85
2022-10-07T19:43:26.383Z,9.57
2022-10-07T19:45:54.395Z,8.70
2022-10-07T19:48:31.215Z,8.80
2022-10-07T19:51:04.834Z,8.52
2022-10-07T19:53:36.787Z,8.52
2022-10-07T19:56:06.915Z,8.30
2022-10-07T19:58:39.378Z,8.93
2022-10-07T20:01:10.351Z,10.07
2022-10-07T20:03:38.364Z,10.73
2022-10-07T20:06:12.501Z,11.10
2022-10-07T20:08:43.687Z,12.98
2022-10-07T20:11:18.277Z,13.18
2022-10-07T20:13:46.840Z,13.85
2022-10-07T20:18:52.445Z,13.98
2022-10-07T20:21:25.071Z,13.65
2022-10-07T20:23:56.104Z,14.75
2022-10-07T20:26:30.233Z,14.45
2022-10-07T20:29:04.888Z,14.32
2022-10-07T20:31:36.414Z,14.07
2022-10-07T20:34:10.233Z,13.73
2022-10-07T20:39:34.155Z,12.50
2022-10-07T20:42:22.720Z,12.52
2022-10-07T20:44:52.230Z,12.90
2022-10-07T20:47:26.028Z,11.68
2022-10-07T20:49:57.817Z,12.35
2022-10-07T20:52:28.469Z,12.35
2022-10-07T20:54:59.945Z,11.35
2022-10-07T20:57:33.428Z,12.00
2022-10-07T21:00:03.715Z,12.07
2022-10-07T21:02:33.755Z,10.65
2022-10-07T21:05:02.497Z,11.15
2022-10-07T21:07:30.714Z,10.90
2022-10-07T21:09:59.024Z,11.48
2022-10-07T21:12:29.453Z,11.50
2022-10-07T21:15:00.590Z,11.00
2022-10-07T21:17:29.233Z,10.48
2022-10-07T21:19:57.817Z,11.00
2022-10-07T21:22:25.689Z,9.63
2022-10-07T21:24:55.564Z,10.45
2022-10-07T21:27:23.457Z,9.88
2022-10-07T21:29:51.375Z,10.65
2022-10-07T21:32:20.237Z,11.10
2022-10-07T21:34:48.921Z,10.90
2022-10-07T21:37:17.391Z,10.48
2022-10-07T21:39:45.722Z,10.35
2022-10-07T21:42:18.910Z,10.85
2022-10-07T21:44:48.198Z,11.43
2022-10-07T21:47:16.333Z,10.38
2022-10-07T21:49:45.360Z,10.73
2022-10-07T21:52:13.901Z,11.18
2022-10-07T21:54:41.754Z,12.75
2022-10-07T21:57:09.750Z,12.98
2022-10-07T21:59:39.151Z,11.57
2022-10-07T22:02:09.156Z,12.43
2022-10-07T22:04:43.947Z,11.50
2022-10-07T22:07:33.276Z,11.07
2022-10-07T22:10:08.489Z,10.75
2022-10-07T22:12:37.487Z,11.00
2022-10-07T22:15:10.461Z,12.40
2022-10-07T22:17:42.511Z,11.63
2022-10-07T22:20:16.146Z,12.18
2022-10-07T22:22:47.408Z,11.68
2022-10-07T22:25:17.284Z,12.70
2022-10-07T22:27:51.799Z,11.63
2022-10-07T22:30:26.678Z,11.68
2022-10-07T22:32:57.270Z,11.98
2022-10-07T22:35:30.529Z,11.02
2022-10-07T22:38:02.474Z,11.63
2022-10-07T22:40:32.778Z,11.10
2022-10-07T22:43:03.407Z,10.60
2022-10-07T22:45:36.810Z,10.43
2022-10-07T22:48:09.357Z,10.68
2022-10-07T22:50:40.074Z,9.35
2022-10-07T22:53:08.893Z,10.40
2022-10-07T22:55:37.815Z,11.48
2022-10-07T22:58:07.845Z,11.68
2022-10-07T23:03:11.471Z,10.90
2022-10-07T23:05:42.802Z,10.57
2022-10-07T23:08:13.809Z,10.35
2022-10-07T23:10:44.843Z,10.90
2022-10-07T23:13:16.367Z,9.80
2022-10-07T23:15:59.799Z,9.77
2022-10-07T23:18:32.145Z,9.18
2022-10-07T23:21:05.774Z,8.68
2022-10-07T23:23:39.752Z,8.43
2022-10-07T23:26:19.939Z,8.73
2022-10-07T23:28:52.573Z,8.85
2022-10-07T23:31:24.962Z,9.35
2022-10-07T23:34:02.222Z,10.45
2022-10-07T23:36:33.720Z,10.10
2022-10-07T23:39:05.016Z,10.48
2022-10-07T23:41:36.619Z,11.32
2022-10-07T23:44:09.572Z,10.93
2022-10-07T23:46:43.529Z,9.50
2022-10-07T23:49:17.730Z,9.55
2022-10-07T23:51:47.979Z,9.43
2022-10-07T23:54:18.646Z,8.07
2022-10-07T23:56:49.872Z,9.63
2022-10-07T23:59:21.636Z,9.13
